createdAt,value
2022-11-02T00:03:36.394Z,4.60
2022-11-02T00:08:56.586Z,2.77
2022-11-02T00:14:16.504Z,2.57
2022-11-02T00:19:36.729Z,2.53
2022-11-02T00:24:56.761Z,2.77
2022-11-02T00:30:16.970Z,2.70
2022-11-02T00:35:37.159Z,3.43
2022-11-02T00:40:57.497Z,3.67
2022-11-02T00:46:17.580Z,3.17
2022-11-02T00:51:37.763Z,4.53
2022-11-02T00:56:57.768Z,3.60
2022-11-02T01:02:18.159Z,2.47
2022-11-02T01:07:38.150Z,3.53
2022-11-02T01:12:58.346Z,2.30
2022-11-02T01:18:18.538Z,1.77
2022-11-02T01:23:38.948Z,2.77
2022-11-02T01:28:59.009Z,4.30
2022-11-02T01:34:19.052Z,3.10
2022-11-02T01:39:39.191Z,2.63
2022-11-02T01:44:59.374Z,2.90
2022-11-02T01:50:19.445Z,2.80
2022-11-02T01:55:39.744Z,2.50
2022-11-02T02:00:59.860Z,3.03
2022-11-02T02:06:19.978Z,2.00
2022-11-02T02:11:40.004Z,3.87
2022-11-02T02:17:00.166Z,2.77
2022-11-02T02:22:20.280Z,2.83
2022-11-02T02:27:40.477Z,3.23
2022-11-02T02:33:00.570Z,4.07
2022-11-02T02:38:20.776Z,2.13
2022-11-02T02:43:40.954Z,1.90
2022-11-02T02:49:01.085Z,2.80
2022-11-02T02:54:21.363Z,2.93
2022-11-02T02:59:41.493Z,2.97
2022-11-02T03:05:01.708Z,2.90
2022-11-02T03:10:21.838Z,2.37
2022-11-02T03:15:41.990Z,3.20
2022-11-02T03:21:02.174Z,2.53
2022-11-02T03:26:22.340Z,1.87
2022-11-02T03:31:42.496Z,1.80
2022-11-02T03:37:02.851Z,2.07
2022-11-02T03:42:22.833Z,2.47
2022-11-02T03:47:43.008Z,1.87
2022-11-02T03:53:03.093Z,2.97
2022-11-02T03:58:23.173Z,1.97
2022-11-02T04:03:43.202Z,1.60
2022-11-02T04:09:03.457Z,3.27
2022-11-02T04:14:23.447Z,2.57
2022-11-02T04:19:45.576Z,1.77
2022-11-02T04:25:08.844Z,2.13
2022-11-02T04:30:29.092Z,2.53
2022-11-02T04:35:49.301Z,2.23
2022-11-02T04:41:09.386Z,2.03
2022-11-02T04:46:29.622Z,2.10
2022-11-02T04:51:50.088Z,1.93
2022-11-02T04:57:10.008Z,1.77
2022-11-02T05:02:30.248Z,3.33
2022-11-02T05:07:50.324Z,4.27
2022-11-02T05:13:10.394Z,2.93
2022-11-02T05:18:30.618Z,1.97
2022-11-02T05:23:50.709Z,2.93
2022-11-02T05:29:11.121Z,2.70
2022-11-02T05:34:31.258Z,2.30
2022-11-02T05:39:51.370Z,1.60
2022-11-02T05:45:11.674Z,1.27
2022-11-02T05:50:31.710Z,1.70
2022-11-02T05:55:51.859Z,1.40
2022-11-02T06:01:12.169Z,1.57
2022-11-02T06:06:32.265Z,1.90
2022-11-02T06:11:52.370Z,2.20
2022-11-02T06:17:12.466Z,2.80
2022-11-02T06:22:32.483Z,1.93
2022-11-02T06:27:52.591Z,2.73
2022-11-02T06:33:13.224Z,2.53
2022-11-02T06:38:33.557Z,2.60
2022-11-02T06:43:53.662Z,3.20
2022-11-02T06:49:13.899Z,2.07
2022-11-02T06:54:34.004Z,1.57
2022-11-02T06:59:54.402Z,1.60
2022-11-02T07:05:14.313Z,2.63
2022-11-02T07:10:34.584Z,2.10
2022-11-02T07:15:54.605Z,1.83
2022-11-02T07:21:14.834Z,2.40
2022-11-02T07:26:34.845Z,1.60
2022-11-02T07:31:54.948Z,2.20
2022-11-02T07:37:15.102Z,1.93
2022-11-02T07:42:35.289Z,1.97
2022-11-02T07:47:55.398Z,2.30
2022-11-02T07:53:15.525Z,1.63
2022-11-02T07:58:35.551Z,1.87
2022-11-02T08:03:55.727Z,3.27
2022-11-02T08:09:15.902Z,1.90
2022-11-02T08:14:36.060Z,1.80
2022-11-02T08:19:56.179Z,1.60
2022-11-02T08:30:41.653Z,2.60
2022-11-02T08:36:01.709Z,1.33
2022-11-02T08:41:21.809Z,2.80
2022-11-02T08:46:42.007Z,1.33
2022-11-02T08:52:02.132Z,1.30
2022-11-02T08:57:22.234Z,1.57
2022-11-02T09:02:42.508Z,1.40
2022-11-02T09:08:02.752Z,1.80
2022-11-02T09:13:22.655Z,2.20
2022-11-02T09:18:42.694Z,2.30
2022-11-02T09:24:02.927Z,1.53
2022-11-02T09:34:45.303Z,1.20
2022-11-02T09:40:05.527Z,1.60
2022-11-02T09:45:25.702Z,2.57
2022-11-02T09:50:46.030Z,1.57
2022-11-02T09:56:07.421Z,2.60
2022-11-02T10:01:27.349Z,1.97
2022-11-02T10:06:47.386Z,1.60
2022-11-02T10:12:07.550Z,1.77
2022-11-02T10:17:27.691Z,1.97
2022-11-02T10:22:47.845Z,2.03
2022-11-02T10:28:08.056Z,1.87
2022-11-02T10:33:28.241Z,2.77
2022-11-02T10:38:48.381Z,1.93
2022-11-02T10:44:08.566Z,2.47
2022-11-02T10:49:28.719Z,1.53
2022-11-02T10:54:48.772Z,1.57
2022-11-02T11:00:08.927Z,1.37
2022-11-02T11:05:28.971Z,1.43
2022-11-02T11:10:49.086Z,1.43
2022-11-02T11:16:11.508Z,1.83
2022-11-02T11:21:32.991Z,2.20
2022-11-02T11:26:57.961Z,2.80
2022-11-02T11:32:20.210Z,4.17
2022-11-02T11:37:40.394Z,4.70
2022-11-02T11:43:02.404Z,5.17
2022-11-02T11:48:22.480Z,3.83
2022-11-02T11:53:42.519Z,3.73
2022-11-02T11:59:02.892Z,2.80
2022-11-02T12:04:23.054Z,3.97
2022-11-02T12:09:43.253Z,4.97
2022-11-02T12:15:06.863Z,2.63
2022-11-02T12:20:27.086Z,3.63
2022-11-02T12:25:47.152Z,3.60
2022-11-02T12:31:07.293Z,4.37
2022-11-02T12:36:27.344Z,4.03
2022-11-02T12:41:47.762Z,2.13
2022-11-02T12:47:07.966Z,3.10
2022-11-02T12:52:27.997Z,4.63
2022-11-02T12:57:48.012Z,3.00
2022-11-02T13:03:08.472Z,5.60
2022-11-02T13:08:28.812Z,3.93
2022-11-02T13:13:49.077Z,4.63
2022-11-02T13:19:09.149Z,3.07
2022-11-02T13:24:31.853Z,2.83
2022-11-02T13:29:52.426Z,3.70
2022-11-02T13:35:12.567Z,3.80
2022-11-02T13:40:32.724Z,4.60
2022-11-02T13:45:52.929Z,3.63
2022-11-02T13:51:13.129Z,4.40
2022-11-02T13:56:33.300Z,4.70
2022-11-02T14:01:53.707Z,2.07
2022-11-02T14:07:13.658Z,4.23
2022-11-02T14:12:33.592Z,3.70
2022-11-02T14:17:53.907Z,3.10
2022-11-02T14:23:14.089Z,4.53
2022-11-02T14:28:34.237Z,3.97
2022-11-02T14:33:54.297Z,6.90
2022-11-02T14:39:14.519Z,7.20
2022-11-02T14:44:34.666Z,4.63
2022-11-02T14:49:54.848Z,4.83
2022-11-02T14:55:14.962Z,4.17
2022-11-02T15:00:35.263Z,8.27
2022-11-02T15:05:57.923Z,5.13
2022-11-02T15:11:21.882Z,4.40
2022-11-02T15:16:42.173Z,4.43
2022-11-02T15:22:02.261Z,3.53
2022-11-02T15:27:22.534Z,4.83
2022-11-02T15:32:42.665Z,3.00
2022-11-02T15:38:17.090Z,5.80
2022-11-02T15:43:38.298Z,3.80
2022-11-02T15:48:58.580Z,2.93
2022-11-02T15:54:18.820Z,3.83
2022-11-02T15:59:39.101Z,6.17
2022-11-02T16:04:59.102Z,3.67
2022-11-02T16:10:19.305Z,2.20
2022-11-02T16:15:39.558Z,6.37
2022-11-02T16:20:59.740Z,7.33
2022-11-02T16:26:19.971Z,5.67
2022-11-02T16:31:40.224Z,5.30
2022-11-02T16:37:00.299Z,4.43
2022-11-02T16:42:20.444Z,4.90
2022-11-02T16:47:40.629Z,5.40
2022-11-02T16:53:00.769Z,8.57
2022-11-02T16:58:20.720Z,5.40
2022-11-02T17:03:40.942Z,6.40
2022-11-02T17:09:00.890Z,4.63
2022-11-02T17:14:21.128Z,7.60
2022-11-02T17:19:41.861Z,4.80
2022-11-02T17:30:27.212Z,6.17
2022-11-02T17:35:47.356Z,5.30
2022-11-02T17:41:07.354Z,6.60
2022-11-02T17:46:27.533Z,6.17
2022-11-02T17:51:47.658Z,8.70
2022-11-02T17:57:07.903Z,4.40
2022-11-02T18:02:28.125Z,5.50
2022-11-02T18:07:48.235Z,5.80
2022-11-02T18:13:08.582Z,8.57
2022-11-02T18:18:28.510Z,8.17
2022-11-02T18:23:48.881Z,6.87
2022-11-02T18:29:09.153Z,8.00
2022-11-02T18:34:29.327Z,5.33
2022-11-02T18:39:49.939Z,5.43
2022-11-02T18:45:10.026Z,4.97
2022-11-02T18:50:30.264Z,7.30
2022-11-02T18:55:50.306Z,5.13
2022-11-02T19:01:10.810Z,6.33
2022-11-02T19:06:30.803Z,4.50
2022-11-02T19:11:50.967Z,8.40
2022-11-02T19:17:11.122Z,8.53
2022-11-02T19:22:31.248Z,5.53
2022-11-02T19:27:51.408Z,5.40
2022-11-02T19:33:11.720Z,6.53
2022-11-02T19:38:31.779Z,6.67
2022-11-02T19:43:51.910Z,10.40
2022-11-02T19:49:12.031Z,10.37
2022-11-02T19:54:32.176Z,10.70
2022-11-02T19:59:52.321Z,12.07
2022-11-02T20:05:12.456Z,6.77
2022-11-02T20:10:32.513Z,12.70
2022-11-02T20:15:52.790Z,7.93
2022-11-02T20:21:13.039Z,9.23
2022-11-02T20:26:33.296Z,8.80
2022-11-02T20:31:53.345Z,8.00
2022-11-02T20:37:13.591Z,10.20
2022-11-02T20:42:33.681Z,7.70
2022-11-02T20:47:53.813Z,12.93
2022-11-02T20:53:13.850Z,10.27
2022-11-02T20:58:34.117Z,6.10
2022-11-02T21:03:54.170Z,7.90
2022-11-02T21:09:14.303Z,9.50
2022-11-02T21:14:34.388Z,7.30
2022-11-02T21:20:02.887Z,7.83
2022-11-02T21:25:33.892Z,9.37
2022-11-02T21:30:54.157Z,10.60
2022-11-02T21:36:14.190Z,10.77
2022-11-02T21:41:34.502Z,8.73
2022-11-02T21:46:54.552Z,8.33
2022-11-02T21:52:14.763Z,9.70
2022-11-02T21:57:34.926Z,10.37
2022-11-02T22:02:55.280Z,12.67
2022-11-02T22:08:15.451Z,6.33
2022-11-02T22:13:35.668Z,8.07
2022-11-02T22:18:55.723Z,6.47
2022-11-02T22:24:15.910Z,5.37
2022-11-02T22:29:36.098Z,6.33
2022-11-02T22:34:56.001Z,6.17
2022-11-02T22:40:16.186Z,8.67
2022-11-02T22:45:36.500Z,6.10
2022-11-02T22:50:56.603Z,6.50
2022-11-02T22:56:16.799Z,4.13
2022-11-02T23:01:37.038Z,6.40
2022-11-02T23:06:57.075Z,5.10
2022-11-02T23:12:17.153Z,5.40
2022-11-02T23:17:37.304Z,5.07
2022-11-02T23:22:57.365Z,8.27
2022-11-02T23:28:17.717Z,5.20
2022-11-02T23:33:37.813Z,5.13
2022-11-02T23:38:57.917Z,4.27
2022-11-02T23:44:18.076Z,3.40
2022-11-02T23:49:38.155Z,6.40
2022-11-02T23:54:58.197Z,3.70
